Time;durP1;ratioP1;P1;durP2;ratioP2;P2;SDS_P1;SDS_P2;PMS_P1;PMS_P2;Temp;Humidity;BMP_temperature;BMP_pressure;BME280_temperature;BME280_humidity;BME280_pressure;Samples;Min_cycle;Max_cycle;Signal;HPM_P1;HPM_P2
2023/05/27 00:01:35;;;;;;;13.55;4.35;;;;;;;10.67;70.62;102123.03;5070898;28;20055;-50
2023/05/27 00:04:02;;;;;;;18.65;4.85;;;;;;;10.67;70.85;102135.34;5076843;28;20241;-54
2023/05/27 00:06:30;;;;;;;13.95;4.90;;;;;;;10.66;70.91;102129.22;5070283;28;20666;-53
2023/05/27 00:08:57;;;;;;;15.93;4.50;;;;;;;10.64;71.40;102133.69;5075364;28;20056;-55
2023/05/27 00:11:25;;;;;;;15.80;4.47;;;;;;;10.60;71.67;102127.66;5074059;28;20435;-56
2023/05/27 00:13:52;;;;;;;19.77;5.47;;;;;;;10.56;71.52;102123.41;5071237;28;20061;-52
2023/05/27 00:16:19;;;;;;;15.05;4.93;;;;;;;10.53;71.90;102134.03;5074334;28;20147;-52
2023/05/27 00:18:47;;;;;;;14.57;4.22;;;;;;;10.48;72.51;102130.72;5070885;28;20076;-50
2023/05/27 00:21:15;;;;;;;20.55;5.13;;;;;;;10.46;72.42;102124.66;5072161;28;20051;-54
2023/05/27 00:23:45;;;;;;;16.63;5.30;;;;;;;10.46;72.14;102127.28;5067840;28;20053;-49
2023/05/27 00:26:12;;;;;;;17.50;4.75;;;;;;;10.45;72.18;102127.34;5074095;28;20101;-51
2023/05/27 00:28:40;;;;;;;17.58;4.57;;;;;;;10.44;72.18;102128.22;5070884;28;20051;-53
2023/05/27 00:31:07;;;;;;;16.92;5.45;;;;;;;10.43;72.29;102124.75;5068234;28;20048;-59
2023/05/27 00:33:34;;;;;;;14.65;4.57;;;;;;;10.40;72.61;102127.47;5064891;28;20124;-52
2023/05/27 00:36:01;;;;;;;15.98;4.47;;;;;;;10.37;72.97;102128.47;5073067;28;20083;-54
2023/05/27 00:38:29;;;;;;;17.63;4.85;;;;;;;10.34;73.00;102123.28;5068293;28;20420;-54
2023/05/27 00:40:57;;;;;;;16.60;5.15;;;;;;;10.29;73.75;102127.84;5071263;28;20056;-56
2023/05/27 00:43:24;;;;;;;20.58;5.45;;;;;;;10.26;74.40;102124.44;5069690;28;20800;-53
2023/05/27 00:45:51;;;;;;;16.50;5.07;;;;;;;10.23;74.14;102122.78;5062214;28;20055;-54
2023/05/27 00:48:20;;;;;;;11.93;4.05;;;;;;;10.22;74.31;102125.44;5074723;28;20120;-50
2023/05/27 00:50:47;;;;;;;17.10;5.10;;;;;;;10.20;74.62;102124.63;5072473;28;20052;-51
2023/05/27 00:53:15;;;;;;;15.38;4.80;;;;;;;10.17;74.90;102125.59;5066578;28;20132;-56
2023/05/27 00:55:43;;;;;;;18.05;5.22;;;;;;;10.14;74.47;102123.06;5062312;28;20056;-53
2023/05/27 00:58:11;;;;;;;15.93;4.40;;;;;;;10.12;75.33;102128.38;5066527;28;20132;-53
2023/05/27 01:00:38;;;;;;;14.35;5.30;;;;;;;10.10;75.18;102132.84;5070126;28;20080;-53
2023/05/27 01:03:08;;;;;;;16.38;4.47;;;;;;;10.09;75.09;102122.38;5072094;28;20142;-53
2023/05/27 01:05:36;;;;;;;17.98;5.53;;;;;;;10.05;75.50;102121.59;5065115;28;20068;-52
2023/05/27 01:08:11;;;;;;;14.63;5.70;;;;;;;10.01;75.50;102117.34;5068104;28;20097;-53
2023/05/27 01:10:50;;;;;;;15.90;4.88;;;;;;;9.96;75.65;102116.66;5072460;28;20508;-57
2023/05/27 01:13:26;;;;;;;18.25;4.90;;;;;;;9.95;76.17;102116.69;5070393;28;20057;-56
2023/05/27 01:15:54;;;;;;;14.73;4.43;;;;;;;9.91;76.22;102115.94;5066619;28;20056;-52
2023/05/27 01:18:22;;;;;;;16.33;4.78;;;;;;;9.89;76.13;102112.47;5064378;28;20056;-54
2023/05/27 01:20:51;;;;;;;13.93;4.15;;;;;;;9.86;76.70;102110.81;5052847;28;20385;-52
2023/05/27 01:23:18;;;;;;;23.15;5.68;;;;;;;9.86;77.44;102113.47;5065715;28;20049;-57
2023/05/27 01:25:46;;;;;;;18.88;4.90;;;;;;;9.84;76.77;102117.88;5068414;28;20049;-52
2023/05/27 01:28:13;;;;;;;15.50;4.45;;;;;;;9.81;76.96;102114.50;5068030;28;20059;-52
2023/05/27 01:30:40;;;;;;;14.52;4.78;;;;;;;9.79;77.03;102109.28;5071668;28;20120;-53
2023/05/27 01:33:10;;;;;;;11.48;3.92;;;;;;;9.75;76.96;102120.81;5066210;28;20044;-53
2023/05/27 01:35:43;;;;;;;18.13;4.93;;;;;;;9.71;77.40;102115.69;5082466;28;20068;-55
2023/05/27 01:38:13;;;;;;;20.00;4.85;;;;;;;9.69;77.88;102113.13;5068621;28;20131;-55
2023/05/27 01:40:41;;;;;;;16.70;5.38;;;;;;;9.68;78.15;102111.41;5067866;28;20481;-55
2023/05/27 01:43:11;;;;;;;16.08;4.90;;;;;;;9.68;78.10;102110.53;5051843;28;20071;-56
2023/05/27 01:45:39;;;;;;;17.10;5.20;;;;;;;9.65;78.36;102103.63;5064798;28;20049;-56
2023/05/27 01:48:06;;;;;;;12.90;4.60;;;;;;;9.64;78.11;102104.53;5072467;28;20074;-51
2023/05/27 01:50:34;;;;;;;12.13;4.07;;;;;;;9.62;78.07;102109.81;5067441;28;20884;-51
2023/05/27 01:53:03;;;;;;;18.30;4.57;;;;;;;9.61;78.64;102100.22;5067472;28;20073;-49
2023/05/27 01:55:30;;;;;;;19.33;5.13;;;;;;;9.60;78.32;102093.25;5063176;28;20366;-53
2023/05/27 01:57:57;;;;;;;14.65;4.25;;;;;;;9.57;78.82;102102.97;5067955;28;20399;-50
2023/05/27 02:00:25;;;;;;;21.73;5.75;;;;;;;9.55;78.63;102092.53;5069292;28;20140;-50
2023/05/27 02:02:52;;;;;;;17.55;4.93;;;;;;;9.54;79.25;102092.56;5069339;28;20131;-54
2023/05/27 02:05:19;;;;;;;10.80;4.35;;;;;;;9.52;79.27;102097.88;5068811;28;20044;-50
2023/05/27 02:07:47;;;;;;;14.23;4.60;;;;;;;9.52;79.16;102094.38;5068493;28;20055;-52
2023/05/27 02:10:14;;;;;;;19.40;5.32;;;;;;;9.48;79.49;102093.63;5064205;28;20044;-53
2023/05/27 02:12:41;;;;;;;23.30;5.80;;;;;;;9.47;80.47;102097.16;5063078;28;20084;-55
2023/05/27 02:15:09;;;;;;;22.02;5.80;;;;;;;9.46;80.29;102089.34;5068564;28;20144;-56
2023/05/27 02:17:37;;;;;;;19.45;5.53;;;;;;;9.42;80.66;102088.56;5068096;28;20053;-55
2023/05/27 02:20:05;;;;;;;21.98;5.50;;;;;;;9.41;80.45;102094.72;5066965;28;20109;-54
2023/05/27 02:22:33;;;;;;;17.83;5.43;;;;;;;9.37;80.68;102096.59;5071077;28;20053;-50
2023/05/27 02:25:01;;;;;;;17.35;4.65;;;;;;;9.36;80.63;102099.22;5071073;28;20124;-53
2023/05/27 02:27:28;;;;;;;17.50;5.35;;;;;;;9.33;80.49;102094.94;5067285;28;20055;-50
2023/05/27 02:29:55;;;;;;;17.55;4.88;;;;;;;9.33;80.43;102100.22;5071031;28;20499;-53
2023/05/27 02:32:22;;;;;;;22.50;5.78;;;;;;;9.30;81.14;102095.03;5061036;28;20057;-53
2023/05/27 02:34:50;;;;;;;21.75;5.57;;;;;;;9.29;81.14;102095.94;5071342;28;20043;-48
2023/05/27 02:37:17;;;;;;;18.40;5.15;;;;;;;9.28;81.73;102098.63;5066171;28;20048;-52
2023/05/27 02:39:44;;;;;;;16.10;4.80;;;;;;;9.25;81.81;102094.31;5067552;28;20496;-57
2023/05/27 02:42:12;;;;;;;24.15;5.97;;;;;;;9.22;82.43;102097.03;5060691;28;20071;-51
2023/05/27 02:44:39;;;;;;;26.35;5.93;;;;;;;9.21;81.87;102097.06;5060651;28;20487;-52
2023/05/27 02:47:06;;;;;;;18.95;5.70;;;;;;;9.20;82.22;102098.84;5069028;28;20732;-53
2023/05/27 02:49:33;;;;;;;18.40;5.65;;;;;;;9.19;82.49;102098.91;5067939;28;20463;-53
2023/05/27 02:52:00;;;;;;;19.35;5.43;;;;;;;9.18;81.97;102112.94;5068771;28;20055;-53
2023/05/27 02:54:28;;;;;;;22.15;5.95;;;;;;;9.19;81.89;102101.53;5061388;28;20045;-56
2023/05/27 02:56:55;;;;;;;15.40;4.57;;;;;;;9.18;82.22;102107.66;5064581;28;20067;-56
2023/05/27 02:59:22;;;;;;;14.07;4.93;;;;;;;9.15;82.69;102110.41;5065368;28;20132;-52
2023/05/27 03:01:49;;;;;;;15.48;4.50;;;;;;;9.13;82.49;102113.06;5064222;28;20132;-53
2023/05/27 03:04:17;;;;;;;19.35;4.15;;;;;;;9.09;83.36;102120.16;5065683;28;20116;-54
2023/05/27 03:06:44;;;;;;;19.67;5.55;;;;;;;9.08;83.06;102112.34;5070907;28;20063;-52
2023/05/27 03:09:11;;;;;;;19.17;5.40;;;;;;;9.06;83.13;102112.41;5079135;28;20056;-55
2023/05/27 03:11:39;;;;;;;19.27;5.35;;;;;;;9.09;83.21;102116.69;5070186;28;20044;-53
2023/05/27 03:14:06;;;;;;;11.80;4.50;;;;;;;9.09;83.49;102109.66;5069654;28;20046;-52
2023/05/27 03:16:33;;;;;;;18.42;5.22;;;;;;;9.09;83.42;102112.28;5074921;28;20050;-55
2023/05/27 03:19:01;;;;;;;15.38;5.28;;;;;;;9.09;83.63;102106.16;5071551;28;20056;-53
2023/05/27 03:21:29;;;;;;;16.05;5.63;;;;;;;9.10;83.30;102108.78;5075321;28;20044;-53
2023/05/27 03:23:56;;;;;;;16.83;4.88;;;;;;;9.11;83.52;102109.63;5075132;28;20529;-52
2023/05/27 03:26:25;;;;;;;21.58;5.55;;;;;;;9.11;83.69;102113.13;5068047;28;20140;-52
2023/05/27 03:28:52;;;;;;;16.55;4.88;;;;;;;9.10;84.03;102100.91;5073910;28;20052;-53
2023/05/27 03:31:19;;;;;;;19.42;5.55;;;;;;;9.10;83.66;102108.78;5070853;28;20070;-51
2023/05/27 03:33:46;;;;;;;17.05;4.57;;;;;;;9.11;84.00;102110.50;5075322;28;20055;-50
2023/05/27 03:36:13;;;;;;;21.80;5.65;;;;;;;9.14;84.28;102112.19;5071446;28;20059;-53
2023/05/27 03:38:41;;;;;;;16.77;5.28;;;;;;;9.17;84.25;102104.19;5071531;28;20067;-50
2023/05/27 03:41:08;;;;;;;21.38;5.43;;;;;;;9.18;84.24;102113.78;5075136;28;20487;-52
2023/05/27 03:43:35;;;;;;;24.83;6.07;;;;;;;9.21;84.64;102111.06;5072968;28;20052;-54
2023/05/27 03:46:02;;;;;;;19.10;5.45;;;;;;;9.22;84.54;102109.31;5075647;28;20063;-55
2023/05/27 03:48:30;;;;;;;15.07;4.47;;;;;;;9.24;84.64;102107.50;5074965;28;20355;-53
2023/05/27 03:50:57;;;;;;;22.35;6.00;;;;;;;9.27;84.40;102110.03;5075416;28;20044;-51
2023/05/27 03:53:24;;;;;;;23.05;6.50;;;;;;;9.31;84.58;102111.66;5072822;28;20151;-51
2023/05/27 03:55:51;;;;;;;16.80;5.45;;;;;;;9.30;85.04;102116.06;5072736;28;20052;-53
2023/05/27 03:58:19;;;;;;;16.80;5.20;;;;;;;9.33;85.14;102109.88;5068843;28;20048;-50
2023/05/27 04:00:47;;;;;;;21.98;5.43;;;;;;;9.36;84.60;102115.88;5072062;28;20051;-50
2023/05/27 04:03:15;;;;;;;21.33;5.22;;;;;;;9.41;85.33;102121.00;5073898;28;20504;-53
2023/05/27 04:05:42;;;;;;;19.63;5.68;;;;;;;9.42;84.72;102119.25;5075150;28;20048;-53
2023/05/27 04:08:13;;;;;;;20.58;6.07;;;;;;;9.44;85.03;102114.78;5070789;28;20059;-53
2023/05/27 04:10:40;;;;;;;19.42;5.93;;;;;;;9.48;84.60;102117.28;5075373;28;20055;-52
2023/05/27 04:13:07;;;;;;;23.15;5.65;;;;;;;9.52;84.89;102111.00;5069608;28;20076;-54
2023/05/27 04:15:34;;;;;;;17.70;5.15;;;;;;;9.56;84.31;102123.16;5064450;28;20057;-55
2023/05/27 04:18:02;;;;;;;16.65;5.53;;;;;;;9.58;84.87;102126.59;5069641;28;20056;-56
2023/05/27 04:20:40;;;;;;;17.40;4.63;;;;;;;9.61;84.92;102125.66;5064422;28;20048;-54
2023/05/27 04:23:07;;;;;;;20.77;5.57;;;;;;;9.65;85.12;102129.91;5068816;28;20051;-55
2023/05/27 04:25:35;;;;;;;20.83;5.50;;;;;;;9.71;85.10;102127.06;5068196;28;20066;-53
2023/05/27 04:28:06;;;;;;;16.52;5.78;;;;;;;9.77;84.81;102128.66;5068711;28;20072;-52
2023/05/27 04:30:34;;;;;;;14.57;5.07;;;;;;;9.82;84.32;102134.66;5062236;28;20043;-53
2023/05/27 04:33:02;;;;;;;23.45;5.38;;;;;;;9.85;85.00;102124.88;5066598;28;21132;-51
2023/05/27 04:35:32;;;;;;;20.83;5.95;;;;;;;9.90;84.12;102129.97;5074022;28;20424;-54
2023/05/27 04:38:00;;;;;;;18.02;5.97;;;;;;;9.96;83.85;102132.44;5068623;28;20049;-54
2023/05/27 04:40:31;;;;;;;15.50;5.70;;;;;;;10.01;84.00;102134.91;5069280;28;20044;-55
2023/05/27 04:42:58;;;;;;;19.02;5.50;;;;;;;10.06;83.82;102135.63;5070869;28;20119;-51
2023/05/27 04:45:26;;;;;;;21.13;6.25;;;;;;;10.07;83.98;102127.66;5070735;28;20451;-54
2023/05/27 04:47:53;;;;;;;18.67;5.13;;;;;;;10.13;84.01;102135.38;5066963;28;20083;-55
2023/05/27 04:50:21;;;;;;;30.95;5.85;;;;;;;10.19;83.77;102133.44;5071513;28;20052;-55
2023/05/27 04:52:48;;;;;;;23.58;5.60;;;;;;;10.25;83.77;102135.91;5069418;28;20057;-54
2023/05/27 04:55:15;;;;;;;19.80;6.47;;;;;;;10.31;83.22;102126.03;5066528;28;20480;-54
2023/05/27 04:57:42;;;;;;;17.38;6.05;;;;;;;10.40;83.14;102135.38;5068423;28;20059;-52
2023/05/27 05:02:39;;;;;;;17.33;4.93;;;;;;;10.54;82.51;102129.66;5067044;28;20664;-49
2023/05/27 05:05:17;;;;;;;15.45;5.47;;;;;;;10.60;81.83;102119.75;5070048;28;20066;-54
2023/05/27 05:07:44;;;;;;;26.27;5.57;;;;;;;10.66;81.88;102126.56;5063415;28;20063;-55
2023/05/27 05:10:11;;;;;;;18.38;6.03;;;;;;;10.73;81.87;102121.97;5067571;28;20083;-54
2023/05/27 05:12:39;;;;;;;16.80;5.20;;;;;;;10.79;81.46;102119.09;5066582;28;20044;-55
2023/05/27 05:15:07;;;;;;;19.90;5.20;;;;;;;10.87;81.09;102122.31;5073267;28;20063;-53
2023/05/27 05:17:35;;;;;;;14.90;5.22;;;;;;;10.94;80.36;102121.16;5067654;28;21084;-49
2023/05/27 05:20:03;;;;;;;16.92;5.60;;;;;;;11.01;80.04;102117.41;5074843;28;20063;-48
2023/05/27 05:22:30;;;;;;;25.05;6.85;;;;;;;11.10;79.81;102126.75;5068223;28;20171;-51
2023/05/27 05:24:57;;;;;;;18.85;6.10;;;;;;;11.15;79.54;102123.03;5073227;28;20080;-53
2023/05/27 05:27:25;;;;;;;17.70;5.25;;;;;;;11.24;79.14;102120.97;5071665;28;20044;-51
2023/05/27 05:29:52;;;;;;;14.95;5.93;;;;;;;11.33;78.76;102126.75;5067631;28;20052;-55
2023/05/27 05:32:20;;;;;;;15.07;4.75;;;;;;;11.43;78.11;102127.25;5066335;28;20048;-54
2023/05/27 05:34:47;;;;;;;15.48;4.95;;;;;;;11.54;77.61;102125.06;5069237;28;20052;-53
2023/05/27 05:37:15;;;;;;;18.73;5.88;;;;;;;11.66;77.35;102132.50;5071862;28;20531;-54
2023/05/27 05:39:42;;;;;;;16.02;5.82;;;;;;;11.79;76.43;102134.63;5064073;28;20500;-50
2023/05/27 05:42:10;;;;;;;15.52;5.25;;;;;;;11.89;76.18;102126.34;5069241;28;20755;-55
2023/05/27 05:44:37;;;;;;;17.85;5.55;;;;;;;12.03;75.38;102132.84;5067894;28;20045;-51
2023/05/27 05:47:04;;;;;;;11.85;4.47;;;;;;;12.12;74.86;102133.31;5067029;28;20067;-54
2023/05/27 05:49:31;;;;;;;13.63;5.65;;;;;;;12.19;74.56;102130.41;5067860;28;20139;-55
2023/05/27 05:51:59;;;;;;;18.95;5.57;;;;;;;12.28;73.56;102128.25;5067226;28;20056;-53
2023/05/27 05:54:26;;;;;;;11.00;5.05;;;;;;;12.37;73.20;102127.84;5067811;28;20635;-56
2023/05/27 05:56:53;;;;;;;14.93;4.30;;;;;;;12.42;71.41;102133.78;5070332;28;20044;-52
2023/05/27 05:59:20;;;;;;;14.38;3.30;;;;;;;12.53;70.53;102130.72;5068106;28;20161;-54
2023/05/27 06:01:48;;;;;;;14.85;4.32;;;;;;;12.64;69.97;102128.44;5066946;28;20054;-51
2023/05/27 06:04:15;;;;;;;13.63;4.38;;;;;;;12.76;69.13;102129.69;5068720;28;20147;-54
2023/05/27 06:06:42;;;;;;;12.55;3.97;;;;;;;12.89;68.64;102133.53;5080003;28;20052;-50
2023/05/27 06:09:10;;;;;;;15.10;3.85;;;;;;;13.01;68.04;102126.81;5070778;28;20044;-51
2023/05/27 06:11:37;;;;;;;17.15;4.47;;;;;;;13.12;67.15;102137.78;5066393;28;20049;-52
2023/05/27 06:14:04;;;;;;;12.68;3.85;;;;;;;13.25;66.89;102138.09;5065459;28;20508;-51
2023/05/27 06:16:32;;;;;;;12.75;3.47;;;;;;;13.35;65.62;102131.44;5065871;28;20159;-49
2023/05/27 06:18:59;;;;;;;9.43;2.63;;;;;;;13.48;64.30;102133.53;5065975;28;20135;-53
2023/05/27 06:21:27;;;;;;;7.82;2.55;;;;;;;13.60;63.27;102139.09;5064700;28;20040;-53
2023/05/27 06:23:54;;;;;;;6.50;2.17;;;;;;;13.66;61.26;102141.44;5068920;28;20050;-52
2023/05/27 06:26:22;;;;;;;7.30;2.58;;;;;;;13.77;61.06;102148.00;5067057;28;20639;-52
2023/05/27 06:28:49;;;;;;;7.18;1.92;;;;;;;13.84;59.62;102145.00;5062756;28;20048;-52
2023/05/27 06:31:16;;;;;;;4.78;1.90;;;;;;;13.97;57.99;102137.31;5060193;28;20040;-55
2023/05/27 06:33:43;;;;;;;7.35;2.08;;;;;;;14.07;56.58;102141.22;5065083;28;20052;-56
2023/05/27 06:36:11;;;;;;;4.55;2.20;;;;;;;14.21;57.16;102147.63;5063694;28;20048;-53
2023/05/27 06:38:39;;;;;;;6.80;1.70;;;;;;;14.33;57.14;102152.31;5058719;28;20676;-54
2023/05/27 06:41:07;;;;;;;6.93;1.98;;;;;;;14.43;55.80;102149.13;5083123;28;20036;-51
2023/05/27 06:43:35;;;;;;;10.25;1.80;;;;;;;14.52;53.57;102144.31;5065476;28;20206;-53
2023/05/27 06:46:02;;;;;;;4.95;1.70;;;;;;;14.59;51.96;102151.91;5067562;28;20056;-52
2023/05/27 06:48:31;;;;;;;4.00;1.60;;;;;;;14.71;50.91;102155.69;5064450;28;20056;-53
2023/05/27 06:50:59;;;;;;;4.55;1.60;;;;;;;14.73;49.88;102156.47;5069994;28;20135;-55
2023/05/27 06:53:26;;;;;;;4.25;1.50;;;;;;;14.85;49.98;102147.88;5066945;28;20127;-51
2023/05/27 06:55:53;;;;;;;4.82;1.52;;;;;;;14.94;49.93;102154.47;5057418;28;20070;-57
2023/05/27 06:58:21;;;;;;;5.57;1.35;;;;;;;15.06;49.11;102152.97;5064492;28;20052;-54
2023/05/27 07:00:48;;;;;;;5.03;1.60;;;;;;;15.16;47.67;102154.19;5073291;28;20049;-50
2023/05/27 07:03:16;;;;;;;3.50;1.15;;;;;;;15.27;48.13;102154.50;5068066;28;20066;-53
2023/05/27 07:05:43;;;;;;;3.88;1.38;;;;;;;15.36;47.46;102159.28;5070675;28;20516;-54
2023/05/27 07:08:12;;;;;;;2.53;1.20;;;;;;;15.41;46.22;102157.25;5069709;28;20052;-54
2023/05/27 07:10:39;;;;;;;5.38;1.08;;;;;;;15.42;45.94;102160.75;5069378;28;20056;-52
2023/05/27 07:13:06;;;;;;;3.42;1.27;;;;;;;15.49;45.43;102159.47;5068764;28;20040;-54
2023/05/27 07:15:34;;;;;;;3.28;1.20;;;;;;;15.56;44.97;102157.31;5069259;28;20554;-55
2023/05/27 07:18:01;;;;;;;3.03;1.23;;;;;;;15.67;44.66;102147.88;5063754;28;20059;-51
2023/05/27 07:20:29;;;;;;;4.15;1.48;;;;;;;15.73;43.49;102151.97;5064727;28;20056;-52
2023/05/27 07:22:58;;;;;;;3.13;1.10;;;;;;;15.76;43.83;102142.97;5069920;28;20048;-54
2023/05/27 07:25:26;;;;;;;7.10;1.42;;;;;;;15.84;43.62;102132.75;5069830;28;20713;-52
2023/05/27 07:27:53;;;;;;;5.03;1.27;;;;;;;15.90;43.61;102140.41;5069964;28;20057;-52
2023/05/27 07:30:20;;;;;;;2.92;1.10;;;;;;;15.97;43.45;102136.44;5066423;28;20090;-53
2023/05/27 07:32:47;;;;;;;4.30;1.42;;;;;;;16.10;42.70;102134.78;5061784;28;20116;-54
2023/05/27 07:35:15;;;;;;;5.88;1.02;;;;;;;16.15;41.52;102137.16;5069114;28;20049;-54
2023/05/27 07:37:42;;;;;;;5.40;1.27;;;;;;;16.19;41.50;102136.03;5068489;28;20144;-50
2023/05/27 07:40:10;;;;;;;3.20;1.08;;;;;;;16.35;41.89;102134.22;5076613;28;20047;-51
2023/05/27 07:42:37;;;;;;;6.30;1.48;;;;;;;16.55;42.05;102134.81;5076174;28;20203;-55
2023/05/27 07:45:05;;;;;;;11.13;3.22;;;;;;;16.72;41.83;102137.34;5067420;28;20047;-49
2023/05/27 07:47:32;;;;;;;5.20;1.80;;;;;;;16.87;41.57;102133.75;5055138;28;20056;-51
2023/05/27 07:49:59;;;;;;;4.82;1.60;;;;;;;16.99;41.07;102129.47;5065020;28;20516;-51
2023/05/27 07:52:26;;;;;;;8.93;3.38;;;;;;;17.06;39.25;102130.78;5071248;28;20040;-50
2023/05/27 07:54:53;;;;;;;3.72;1.83;;;;;;;17.08;38.89;102126.25;5066858;28;20059;-54
2023/05/27 07:57:22;;;;;;;2.28;1.05;;;;;;;17.08;37.17;102131.56;5069819;28;20052;-47
2023/05/27 07:59:49;;;;;;;2.35;1.15;;;;;;;17.12;37.32;102121.59;5072709;28;20469;-54
2023/05/27 08:02:16;;;;;;;4.47;1.00;;;;;;;17.26;37.94;102118.06;5061497;28;20048;-55
2023/05/27 08:04:44;;;;;;;1.77;0.70;;;;;;;17.33;37.35;102106.06;5068240;28;20079;-52
2023/05/27 08:07:12;;;;;;;2.30;0.77;;;;;;;17.35;37.30;102102.34;5067162;28;20930;-54
2023/05/27 08:09:39;;;;;;;2.50;1.35;;;;;;;17.43;37.33;102109.84;5066819;28;20516;-50
2023/05/27 08:12:06;;;;;;;2.13;0.93;;;;;;;17.51;36.79;102098.69;5074554;28;20044;-56
2023/05/27 08:14:36;;;;;;;3.95;1.13;;;;;;;17.60;37.17;102098.09;5068416;28;20067;-55
2023/05/27 08:17:04;;;;;;;4.00;1.13;;;;;;;17.69;36.98;102098.34;5071887;28;20818;-51
2023/05/27 08:19:33;;;;;;;2.15;0.80;;;;;;;17.78;36.90;102094.25;5066952;28;20080;-53
2023/05/27 08:22:01;;;;;;;3.17;1.05;;;;;;;17.94;37.19;102100.28;5069972;28;20044;-54
2023/05/27 08:24:32;;;;;;;3.03;1.10;;;;;;;18.08;37.02;102098.50;5066962;28;20055;-56
2023/05/27 08:26:59;;;;;;;3.83;1.00;;;;;;;18.16;36.21;102083.72;5075625;28;20051;-53
2023/05/27 08:29:27;;;;;;;3.25;1.08;;;;;;;18.10;34.97;102085.94;5073165;28;20401;-53
2023/05/27 08:31:55;;;;;;;3.33;0.90;;;;;;;18.14;34.88;102090.94;5060571;28;20045;-59
2023/05/27 08:34:23;;;;;;;2.60;0.95;;;;;;;18.14;34.70;102085.63;5074060;28;20538;-56
2023/05/27 08:36:50;;;;;;;7.57;1.10;;;;;;;18.31;34.82;102087.13;5062230;28;20075;-59
2023/05/27 08:39:18;;;;;;;2.15;0.90;;;;;;;18.40;33.51;102086.50;5068128;28;20044;-61
2023/05/27 08:41:45;;;;;;;2.22;1.10;;;;;;;18.32;33.71;102085.31;5064604;28;20052;-61
2023/05/27 08:44:12;;;;;;;8.60;1.50;;;;;;;18.28;33.39;102089.16;5062766;28;20920;-52
2023/05/27 08:46:48;;;;;;;;;;;;;;;18.22;31.17;102085.09;5079707;28;20044;-58
2023/05/27 08:49:16;;;;;;;2.95;1.00;;;;;;;18.10;32.14;102080.59;5064498;28;19920;-53
2023/05/27 08:51:44;;;;;;;1.42;0.60;;;;;;;18.07;32.59;102076.34;5068922;28;20198;-56
2023/05/27 08:54:12;;;;;;;1.67;0.70;;;;;;;18.14;33.06;102069.63;5061120;28;20044;-55
2023/05/27 08:56:39;;;;;;;1.33;0.70;;;;;;;18.29;33.21;102065.09;5065592;28;20392;-53
2023/05/27 08:59:07;;;;;;;2.85;0.88;;;;;;;18.43;33.45;102072.13;5065225;28;20132;-52
2023/05/27 09:01:35;;;;;;;1.23;0.90;;;;;;;18.57;32.55;102064.00;5065408;28;20044;-51
2023/05/27 09:04:02;;;;;;;1.65;0.70;;;;;;;18.74;32.82;102062.03;5063903;28;20060;-52
2023/05/27 09:06:30;;;;;;;2.60;0.98;;;;;;;18.77;31.10;102053.78;5059926;28;20048;-58
2023/05/27 09:08:58;;;;;;;1.63;0.90;;;;;;;18.82;31.40;102060.53;5069129;28;20062;-55
2023/05/27 09:11:27;;;;;;;2.03;0.88;;;;;;;18.92;31.63;102064.22;5063198;28;20062;-54
2023/05/27 09:13:55;;;;;;;1.85;0.95;;;;;;;19.03;31.33;102059.94;5066604;28;20059;-54
2023/05/27 09:16:23;;;;;;;1.73;0.70;;;;;;;19.05;31.17;102056.22;5057292;28;20048;-53
2023/05/27 09:18:51;;;;;;;1.35;0.70;;;;;;;19.13;31.13;102056.47;5061242;28;20052;-54
2023/05/27 09:21:18;;;;;;;2.35;0.70;;;;;;;19.25;30.94;102059.25;5060148;28;20052;-56
2023/05/27 09:23:46;;;;;;;1.63;0.70;;;;;;;19.23;30.81;102065.56;5046021;28;20041;-52
2023/05/27 09:26:13;;;;;;;1.20;0.88;;;;;;;19.31;31.31;102059.63;5066292;28;20489;-54
2023/05/27 09:28:41;;;;;;;1.88;0.88;;;;;;;19.50;31.20;102072.50;5064800;28;20537;-53
2023/05/27 09:31:09;;;;;;;2.03;0.95;;;;;;;19.64;31.52;102063.50;5064268;28;20059;-52
2023/05/27 09:33:40;;;;;;;4.97;1.02;;;;;;;19.76;30.55;102056.38;5063619;28;20382;-53
2023/05/27 09:36:10;;;;;;;1.30;0.90;;;;;;;19.89;30.21;102058.00;5061460;28;20081;-56
2023/05/27 09:38:37;;;;;;;2.08;1.00;;;;;;;20.00;29.76;102056.38;5068960;28;20052;-58
2023/05/27 09:41:05;;;;;;;2.85;0.98;;;;;;;19.93;29.14;102054.13;5064400;28;20046;-59
2023/05/27 09:43:32;;;;;;;2.65;0.80;;;;;;;19.84;28.55;102052.16;5060220;28;20102;-55
2023/05/27 09:46:04;;;;;;;1.58;0.95;;;;;;;19.68;29.11;102052.47;5063662;28;20639;-58
2023/05/27 09:48:31;;;;;;;2.63;1.00;;;;;;;19.72;29.81;102045.06;5062856;28;20059;-54
2023/05/27 09:50:59;;;;;;;4.35;1.25;;;;;;;19.83;29.29;102050.47;5062198;28;20086;-59
2023/05/27 09:53:28;;;;;;;1.33;1.08;;;;;;;19.89;30.08;102046.47;5063577;28;20621;-58
2023/05/27 09:55:56;;;;;;;1.70;0.95;;;;;;;20.08;30.35;102046.75;5067755;28;20415;-54
2023/05/27 09:58:25;;;;;;;2.33;1.17;;;;;;;20.19;30.09;102036.09;5065642;28;20133;-55
2023/05/27 10:00:55;;;;;;;3.88;1.33;;;;;;;20.31;29.83;102044.13;5032701;28;20078;-58
2023/05/27 10:03:24;;;;;;;3.70;1.20;;;;;;;20.39;30.20;102036.38;5061235;28;20079;-56
2023/05/27 10:05:52;;;;;;;2.28;1.17;;;;;;;20.58;30.49;102030.47;5050552;28;20347;-55
2023/05/27 10:08:20;;;;;;;2.97;1.10;;;;;;;20.71;30.03;102034.75;5055728;28;20393;-56
2023/05/27 10:10:53;;;;;;;3.42;1.15;;;;;;;20.79;30.20;102034.13;5051396;28;20067;-54
2023/05/27 10:13:21;;;;;;;4.18;1.95;;;;;;;20.94;30.67;102032.06;5056600;28;20162;-58
2023/05/27 10:15:51;;;;;;;2.03;1.20;;;;;;;21.17;31.36;102027.50;5064129;28;20109;-58
2023/05/27 10:18:28;;;;;;;2.22;1.20;;;;;;;21.32;30.16;102025.44;5061313;28;20045;-54
2023/05/27 10:20:59;;;;;;;2.95;0.88;;;;;;;21.30;28.96;102019.28;5060990;28;20049;-55
2023/05/27 10:23:31;;;;;;;1.50;0.98;;;;;;;21.30;29.13;102021.97;5066090;28;20068;-51
2023/05/27 10:26:04;;;;;;;2.08;1.08;;;;;;;21.34;29.84;102023.47;5064439;28;20136;-56
2023/05/27 10:28:39;;;;;;;1.52;0.90;;;;;;;21.29;28.79;102018.44;5061010;28;20649;-51
2023/05/27 10:31:07;;;;;;;2.33;1.00;;;;;;;21.28;29.48;102021.25;5064575;28;20689;-52
2023/05/27 10:33:38;;;;;;;2.40;1.25;;;;;;;21.40;29.77;102017.63;5068143;28;20511;-55
2023/05/27 10:36:10;;;;;;;2.70;1.13;;;;;;;21.15;28.27;102008.88;5067087;28;20115;-56
2023/05/27 10:38:39;;;;;;;2.88;1.02;;;;;;;21.14;29.23;102006.31;5065491;28;20060;-58
2023/05/27 10:41:07;;;;;;;2.83;1.40;;;;;;;21.31;29.19;102000.47;5064663;28;20781;-57
2023/05/27 10:43:35;;;;;;;1.83;1.20;;;;;;;21.55;29.66;102000.25;5061478;28;20045;-56
2023/05/27 10:46:04;;;;;;;2.28;1.00;;;;;;;21.85;30.13;102006.69;5062809;28;20053;-58
2023/05/27 10:48:33;;;;;;;5.15;1.20;;;;;;;22.06;30.15;102004.00;5061171;28;20053;-55
2023/05/27 10:51:00;;;;;;;2.00;0.88;;;;;;;21.97;27.62;101997.59;5063248;28;20047;-59
2023/05/27 10:53:28;;;;;;;2.47;1.30;;;;;;;21.97;28.75;102000.28;5064927;28;20049;-60
2023/05/27 10:55:59;;;;;;;4.38;1.30;;;;;;;22.02;28.04;102003.44;5065130;28;20058;-60
2023/05/27 10:58:28;;;;;;;2.65;1.63;;;;;;;21.80;27.50;101998.19;5060516;28;20416;-57
2023/05/27 11:00:56;;;;;;;3.45;1.02;;;;;;;21.59;27.62;101992.81;5066516;28;20067;-59
2023/05/27 11:03:26;;;;;;;6.38;1.83;;;;;;;21.57;28.71;101986.72;5062426;28;20052;-55
2023/05/27 11:06:06;;;;;;;2.13;1.25;;;;;;;21.74;28.88;101978.94;5062766;28;20084;-56
2023/05/27 11:08:34;;;;;;;2.83;1.30;;;;;;;21.90;28.60;101977.66;5064888;28;20124;-54
2023/05/27 11:11:03;;;;;;;3.78;1.40;;;;;;;22.19;28.92;101965.28;5061962;28;20521;-59
2023/05/27 11:13:44;;;;;;;2.80;1.30;;;;;;;22.47;28.68;101979.84;5063141;28;20504;-55
2023/05/27 11:16:15;;;;;;;2.15;0.95;;;;;;;22.70;28.58;101961.69;5062541;28;20822;-53
2023/05/27 11:18:46;;;;;;;2.85;1.50;;;;;;;22.91;28.69;101963.47;5058956;28;20057;-55
2023/05/27 11:21:18;;;;;;;3.13;1.58;;;;;;;23.03;27.78;101956.16;5061832;28;20063;-59
2023/05/27 11:23:48;;;;;;;4.93;1.52;;;;;;;23.21;27.97;101954.47;5064117;28;20049;-57
2023/05/27 11:26:16;;;;;;;3.28;1.55;;;;;;;23.36;27.62;101958.41;5063866;28;20048;-53
2023/05/27 11:28:50;;;;;;;2.58;1.45;;;;;;;23.52;27.37;101960.56;5069209;28;20063;-60
2023/05/27 11:31:19;;;;;;;3.00;1.43;;;;;;;23.44;26.10;101955.88;5066946;28;20154;-58